sensor_id;sensor_type;location;lat;lon;timestamp;pressure;altitude;pressure_sealevel;temperature;humidity
21956;BME280;11142;49.930;8.606;2023-06-22T00:01:19;100114.84;;;24.65;100.00
21956;BME280;11142;49.930;8.606;2023-06-22T00:03:49;100107.22;;;24.76;100.00
21956;BME280;11142;49.930;8.606;2023-06-22T00:06:17;100115.53;;;24.88;100.00
21956;BME280;11142;49.930;8.606;2023-06-22T00:08:45;100122.78;;;24.79;100.00
21956;BME280;11142;49.930;8.606;2023-06-22T00:11:15;100129.91;;;24.14;100.00
21956;BME280;11142;49.930;8.606;2023-06-22T00:13:43;100125.38;;;23.85;100.00
21956;BME280;11142;49.930;8.606;2023-06-22T00:16:11;100134.25;;;23.77;100.00
21956;BME280;11142;49.930;8.606;2023-06-22T00:18:39;100140.34;;;24.15;100.00
21956;BME280;11142;49.930;8.606;2023-06-22T00:21:14;100144.31;;;23.82;100.00
21956;BME280;11142;49.930;8.606;2023-06-22T00:23:41;100151.78;;;23.78;100.00
21956;BME280;11142;49.930;8.606;2023-06-22T00:26:10;100157.06;;;23.64;100.00
21956;BME280;11142;49.930;8.606;2023-06-22T00:28:40;100180.28;;;23.62;100.00
21956;BME280;11142;49.930;8.606;2023-06-22T00:31:08;100187.69;;;23.66;100.00
21956;BME280;11142;49.930;8.606;2023-06-22T00:33:43;100209.09;;;23.42;100.00
21956;BME280;11142;49.930;8.606;2023-06-22T00:36:11;100215.81;;;23.22;100.00
21956;BME280;11142;49.930;8.606;2023-06-22T00:38:44;100226.31;;;23.07;100.00
21956;BME280;11142;49.930;8.606;2023-06-22T00:41:13;100233.09;;;23.10;100.00
21956;BME280;11142;49.930;8.606;2023-06-22T00:43:45;100240.75;;;23.05;100.00
21956;BME280;11142;49.930;8.606;2023-06-22T00:46:12;100246.25;;;22.95;100.00
21956;BME280;11142;49.930;8.606;2023-06-22T00:48:42;100245.97;;;23.13;100.00
21956;BME280;11142;49.930;8.606;2023-06-22T00:51:10;100243.66;;;23.49;100.00
21956;BME280;11142;49.930;8.606;2023-06-22T00:53:38;100239.13;;;23.26;100.00
21956;BME280;11142;49.930;8.606;2023-06-22T00:56:09;100229.16;;;23.28;100.00
21956;BME280;11142;49.930;8.606;2023-06-22T00:58:39;100238.72;;;23.38;100.00
21956;BME280;11142;49.930;8.606;2023-06-22T01:01:09;100265.91;;;23.40;100.00
21956;BME280;11142;49.930;8.606;2023-06-22T01:03:37;100306.31;;;23.64;100.00
21956;BME280;11142;49.930;8.606;2023-06-22T01:06:06;100344.84;;;23.75;100.00
21956;BME280;11142;49.930;8.606;2023-06-22T01:08:38;100371.16;;;23.76;100.00
21956;BME280;11142;49.930;8.606;2023-06-22T01:11:15;100392.31;;;23.54;100.00
21956;BME280;11142;49.930;8.606;2023-06-22T01:13:45;100409.31;;;23.20;100.00
21956;BME280;11142;49.930;8.606;2023-06-22T01:16:17;100411.22;;;22.88;100.00
21956;BME280;11142;49.930;8.606;2023-06-22T01:18:47;100406.13;;;22.70;100.00
21956;BME280;11142;49.930;8.606;2023-06-22T01:21:19;100375.34;;;22.61;100.00
21956;BME280;11142;49.930;8.606;2023-06-22T01:23:54;100290.84;;;22.59;100.00
21956;BME280;11142;49.930;8.606;2023-06-22T01:26:28;100163.22;;;22.02;100.00
21956;BME280;11142;49.930;8.606;2023-06-22T01:29:04;100047.38;;;21.51;100.00
21956;BME280;11142;49.930;8.606;2023-06-22T01:31:31;99910.81;;;21.12;100.00
21956;BME280;11142;49.930;8.606;2023-06-22T01:34:02;99885.13;;;20.90;100.00
21956;BME280;11142;49.930;8.606;2023-06-22T01:36:31;99973.81;;;21.07;100.00
21956;BME280;11142;49.930;8.606;2023-06-22T01:38:59;100062.59;;;21.33;100.00
21956;BME280;11142;49.930;8.606;2023-06-22T01:41:27;100115.38;;;21.33;100.00
21956;BME280;11142;49.930;8.606;2023-06-22T01:43:56;100141.78;;;21.33;100.00
21956;BME280;11142;49.930;8.606;2023-06-22T01:46:25;100157.63;;;21.41;100.00
21956;BME280;11142;49.930;8.606;2023-06-22T01:48:53;100156.63;;;21.74;100.00
21956;BME280;11142;49.930;8.606;2023-06-22T01:51:21;100161.03;;;22.14;100.00
21956;BME280;11142;49.930;8.606;2023-06-22T01:53:49;100156.94;;;22.50;100.00
21956;BME280;11142;49.930;8.606;2023-06-22T01:56:18;100153.41;;;22.58;100.00
21956;BME280;11142;49.930;8.606;2023-06-22T01:58:48;100148.53;;;22.00;100.00
21956;BME280;11142;49.930;8.606;2023-06-22T02:01:18;100144.72;;;21.70;100.00
21956;BME280;11142;49.930;8.606;2023-06-22T02:03:52;100140.63;;;21.43;100.00
21956;BME280;11142;49.930;8.606;2023-06-22T02:06:25;100138.78;;;21.44;100.00
21956;BME280;11142;49.930;8.606;2023-06-22T02:08:56;100136.81;;;21.38;100.00
21956;BME280;11142;49.930;8.606;2023-06-22T02:14:16;100144.06;;;21.60;100.00
21956;BME280;11142;49.930;8.606;2023-06-22T02:16:45;100147.19;;;21.80;100.00
21956;BME280;11142;49.930;8.606;2023-06-22T02:19:15;100149.69;;;21.65;100.00
21956;BME280;11142;49.930;8.606;2023-06-22T02:21:45;100157.63;;;21.89;100.00
21956;BME280;11142;49.930;8.606;2023-06-22T02:24:13;100146.97;;;22.21;100.00
21956;BME280;11142;49.930;8.606;2023-06-22T02:26:40;100152.34;;;22.44;100.00
21956;BME280;11142;49.930;8.606;2023-06-22T02:29:12;100142.19;;;22.56;100.00
21956;BME280;11142;49.930;8.606;2023-06-22T02:31:41;100147.16;;;22.67;100.00
21956;BME280;11142;49.930;8.606;2023-06-22T02:34:11;100145.66;;;22.56;100.00
21956;BME280;11142;49.930;8.606;2023-06-22T02:36:46;100146.50;;;22.57;100.00
21956;BME280;11142;49.930;8.606;2023-06-22T02:39:19;100154.78;;;22.54;100.00
21956;BME280;11142;49.930;8.606;2023-06-22T02:41:46;100151.75;;;22.26;100.00
21956;BME280;11142;49.930;8.606;2023-06-22T02:44:14;100151.34;;;21.90;100.00
21956;BME280;11142;49.930;8.606;2023-06-22T02:46:42;100157.59;;;22.05;100.00
21956;BME280;11142;49.930;8.606;2023-06-22T02:49:12;100149.31;;;22.16;100.00
21956;BME280;11142;49.930;8.606;2023-06-22T02:51:42;100146.69;;;21.76;100.00
21956;BME280;11142;49.930;8.606;2023-06-22T02:54:13;100141.13;;;21.47;100.00
21956;BME280;11142;49.930;8.606;2023-06-22T02:56:42;100140.47;;;21.53;100.00
21956;BME280;11142;49.930;8.606;2023-06-22T02:59:10;100143.44;;;21.42;100.00
21956;BME280;11142;49.930;8.606;2023-06-22T03:01:38;100132.53;;;21.21;100.00
21956;BME280;11142;49.930;8.606;2023-06-22T03:04:17;100131.38;;;21.23;100.00
21956;BME280;11142;49.930;8.606;2023-06-22T03:06:45;100118.50;;;21.60;100.00
21956;BME280;11142;49.930;8.606;2023-06-22T03:09:19;100117.31;;;21.87;100.00
21956;BME280;11142;49.930;8.606;2023-06-22T03:11:47;100115.34;;;21.97;100.00
21956;BME280;11142;49.930;8.606;2023-06-22T03:14:15;100112.69;;;21.89;100.00
21956;BME280;11142;49.930;8.606;2023-06-22T03:16:43;100104.72;;;22.05;100.00
21956;BME280;11142;49.930;8.606;2023-06-22T03:19:12;100121.59;;;21.96;100.00
21956;BME280;11142;49.930;8.606;2023-06-22T03:21:40;100132.19;;;21.96;100.00
21956;BME280;11142;49.930;8.606;2023-06-22T03:24:08;100125.22;;;22.03;100.00
21956;BME280;11142;49.930;8.606;2023-06-22T03:26:38;100133.44;;;22.16;100.00
21956;BME280;11142;49.930;8.606;2023-06-22T03:29:07;100133.59;;;22.15;100.00
21956;BME280;11142;49.930;8.606;2023-06-22T03:31:35;100124.00;;;22.22;100.00
21956;BME280;11142;49.930;8.606;2023-06-22T03:34:05;100134.78;;;22.12;100.00
21956;BME280;11142;49.930;8.606;2023-06-22T03:36:34;100123.59;;;21.94;100.00
21956;BME280;11142;49.930;8.606;2023-06-22T03:39:07;100112.03;;;21.71;100.00
21956;BME280;11142;49.930;8.606;2023-06-22T03:41:36;100107.56;;;21.80;100.00
21956;BME280;11142;49.930;8.606;2023-06-22T03:44:05;100102.44;;;21.86;100.00
21956;BME280;11142;49.930;8.606;2023-06-22T03:46:35;100100.50;;;21.72;100.00
21956;BME280;11142;49.930;8.606;2023-06-22T03:49:03;100095.84;;;21.74;100.00
21956;BME280;11142;49.930;8.606;2023-06-22T03:51:32;100104.13;;;21.71;100.00
21956;BME280;11142;49.930;8.606;2023-06-22T03:54:03;100108.09;;;21.75;100.00
21956;BME280;11142;49.930;8.606;2023-06-22T03:56:31;100107.94;;;21.68;100.00
21956;BME280;11142;49.930;8.606;2023-06-22T03:58:59;100113.16;;;22.01;100.00
21956;BME280;11142;49.930;8.606;2023-06-22T04:01:28;100115.34;;;21.73;100.00
21956;BME280;11142;49.930;8.606;2023-06-22T04:03:56;100117.81;;;21.66;100.00
21956;BME280;11142;49.930;8.606;2023-06-22T04:06:27;100121.50;;;21.49;100.00
21956;BME280;11142;49.930;8.606;2023-06-22T04:08:55;100126.09;;;21.55;100.00
21956;BME280;11142;49.930;8.606;2023-06-22T04:11:23;100116.84;;;21.51;100.00
21956;BME280;11142;49.930;8.606;2023-06-22T04:13:51;100120.16;;;21.53;100.00
21956;BME280;11142;49.930;8.606;2023-06-22T04:16:20;100121.50;;;21.33;100.00
21956;BME280;11142;49.930;8.606;2023-06-22T04:18:49;100117.19;;;21.32;100.00
21956;BME280;11142;49.930;8.606;2023-06-22T04:21:17;100123.13;;;21.42;100.00
21956;BME280;11142;49.930;8.606;2023-06-22T04:23:46;100117.81;;;21.66;100.00
21956;BME280;11142;49.930;8.606;2023-06-22T04:26:15;100103.44;;;21.77;100.00
21956;BME280;11142;49.930;8.606;2023-06-22T04:28:43;100116.81;;;21.92;100.00
21956;BME280;11142;49.930;8.606;2023-06-22T04:31:18;100115.66;;;21.94;100.00
21956;BME280;11142;49.930;8.606;2023-06-22T04:33:46;100109.38;;;21.87;100.00
21956;BME280;11142;49.930;8.606;2023-06-22T04:36:20;100110.50;;;22.01;100.00
21956;BME280;11142;49.930;8.606;2023-06-22T04:38:50;100102.03;;;22.13;100.00
21956;BME280;11142;49.930;8.606;2023-06-22T04:41:19;100100.66;;;22.34;100.00
21956;BME280;11142;49.930;8.606;2023-06-22T04:43:51;100111.63;;;22.22;100.00
21956;BME280;11142;49.930;8.606;2023-06-22T04:46:20;100108.38;;;22.43;100.00
21956;BME280;11142;49.930;8.606;2023-06-22T04:48:49;100107.19;;;22.46;100.00
21956;BME280;11142;49.930;8.606;2023-06-22T04:51:17;100107.25;;;22.38;100.00
21956;BME280;11142;49.930;8.606;2023-06-22T04:53:50;100102.84;;;22.61;100.00
21956;BME280;11142;49.930;8.606;2023-06-22T04:56:17;100109.69;;;22.78;100.00
21956;BME280;11142;49.930;8.606;2023-06-22T04:58:48;100116.78;;;22.86;100.00
21956;BME280;11142;49.930;8.606;2023-06-22T05:01:18;100114.69;;;22.73;100.00
21956;BME280;11142;49.930;8.606;2023-06-22T05:03:48;100119.19;;;22.95;100.00
21956;BME280;11142;49.930;8.606;2023-06-22T05:06:17;100117.53;;;22.94;100.00
21956;BME280;11142;49.930;8.606;2023-06-22T05:08:45;100116.00;;;23.22;100.00
21956;BME280;11142;49.930;8.606;2023-06-22T05:11:14;100114.22;;;23.38;100.00
21956;BME280;11142;49.930;8.606;2023-06-22T05:13:42;100114.81;;;23.25;100.00
21956;BME280;11142;49.930;8.606;2023-06-22T05:16:10;100112.13;;;23.33;100.00
21956;BME280;11142;49.930;8.606;2023-06-22T05:18:39;100109.25;;;23.43;100.00
21956;BME280;11142;49.930;8.606;2023-06-22T05:21:08;100102.44;;;23.92;100.00
21956;BME280;11142;49.930;8.606;2023-06-22T05:23:36;100100.22;;;23.66;100.00
21956;BME280;11142;49.930;8.606;2023-06-22T05:26:04;100104.19;;;24.00;100.00
21956;BME280;11142;49.930;8.606;2023-06-22T05:28:34;100098.53;;;24.32;100.00
21956;BME280;11142;49.930;8.606;2023-06-22T05:31:02;100103.31;;;24.94;100.00
21956;BME280;11142;49.930;8.606;2023-06-22T05:33:30;100100.25;;;25.11;100.00
21956;BME280;11142;49.930;8.606;2023-06-22T05:35:59;100097.06;;;25.22;100.00
21956;BME280;11142;49.930;8.606;2023-06-22T05:38:27;100103.53;;;25.13;100.00
21956;BME280;11142;49.930;8.606;2023-06-22T05:40:55;100096.59;;;25.61;100.00
21956;BME280;11142;49.930;8.606;2023-06-22T05:43:23;100099.22;;;25.89;100.00
21956;BME280;11142;49.930;8.606;2023-06-22T05:45:53;100106.34;;;25.54;100.00
21956;BME280;11142;49.930;8.606;2023-06-22T05:48:21;100108.25;;;25.95;100.00
21956;BME280;11142;49.930;8.606;2023-06-22T05:50:49;100103.97;;;26.28;100.00
21956;BME280;11142;49.930;8.606;2023-06-22T05:53:18;100095.84;;;25.25;100.00
21956;BME280;11142;49.930;8.606;2023-06-22T05:55:45;100087.53;;;25.83;100.00
21956;BME280;11142;49.930;8.606;2023-06-22T05:58:14;100092.56;;;26.06;100.00
21956;BME280;11142;49.930;8.606;2023-06-22T06:00:42;100099.34;;;26.09;100.00
21956;BME280;11142;49.930;8.606;2023-06-22T06:03:12;100096.88;;;26.14;100.00
21956;BME280;11142;49.930;8.606;2023-06-22T06:05:44;100092.88;;;26.24;100.00
21956;BME280;11142;49.930;8.606;2023-06-22T06:08:12;100096.56;;;26.23;100.00
21956;BME280;11142;49.930;8.606;2023-06-22T06:10:41;100080.69;;;26.43;100.00
21956;BME280;11142;49.930;8.606;2023-06-22T06:13:11;100090.59;;;26.69;100.00
21956;BME280;11142;49.930;8.606;2023-06-22T06:15:40;100087.19;;;26.34;100.00
21956;BME280;11142;49.930;8.606;2023-06-22T06:18:09;100085.06;;;26.77;100.00
21956;BME280;11142;49.930;8.606;2023-06-22T06:20:40;100086.41;;;27.20;100.00
21956;BME280;11142;49.930;8.606;2023-06-22T06:23:09;100086.19;;;27.55;100.00
21956;BME280;11142;49.930;8.606;2023-06-22T06:25:37;100083.91;;;27.78;100.00
21956;BME280;11142;49.930;8.606;2023-06-22T06:28:05;100088.59;;;28.09;100.00
21956;BME280;11142;49.930;8.606;2023-06-22T06:30:34;100079.13;;;28.00;100.00
21956;BME280;11142;49.930;8.606;2023-06-22T06:33:03;100072.44;;;27.58;100.00
21956;BME280;11142;49.930;8.606;2023-06-22T06:35:36;100075.06;;;27.90;100.00
21956;BME280;11142;49.930;8.606;2023-06-22T06:38:06;100082.72;;;27.48;100.00
21956;BME280;11142;49.930;8.606;2023-06-22T06:40:35;100081.69;;;27.62;100.00
21956;BME280;11142;49.930;8.606;2023-06-22T06:43:03;100077.53;;;27.79;100.00
21956;BME280;11142;49.930;8.606;2023-06-22T06:45:32;100076.09;;;27.76;100.00
21956;BME280;11142;49.930;8.606;2023-06-22T06:48:02;100080.94;;;28.19;100.00
21956;BME280;11142;49.930;8.606;2023-06-22T06:50:32;100071.66;;;28.34;100.00
21956;BME280;11142;49.930;8.606;2023-06-22T06:53:01;100075.59;;;29.01;100.00
21956;BME280;11142;49.930;8.606;2023-06-22T06:55:30;100079.19;;;29.13;100.00
21956;BME280;11142;49.930;8.606;2023-06-22T06:58:01;100083.16;;;29.04;100.00
21956;BME280;11142;49.930;8.606;2023-06-22T07:00:31;100075.38;;;29.27;100.00
21956;BME280;11142;49.930;8.606;2023-06-22T07:03:00;100078.56;;;30.03;100.00
21956;BME280;11142;49.930;8.606;2023-06-22T07:05:28;100082.97;;;29.55;100.00
21956;BME280;11142;49.930;8.606;2023-06-22T07:07:56;100081.94;;;29.31;100.00
21956;BME280;11142;49.930;8.606;2023-06-22T07:10:26;100069.00;;;29.28;100.00
21956;BME280;11142;49.930;8.606;2023-06-22T07:12:56;100058.50;;;29.94;100.00
21956;BME280;11142;49.930;8.606;2023-06-22T07:15:25;100056.25;;;28.99;100.00
21956;BME280;11142;49.930;8.606;2023-06-22T07:17:53;100045.19;;;28.58;100.00
21956;BME280;11142;49.930;8.606;2023-06-22T07:20:21;100061.09;;;29.40;100.00
21956;BME280;11142;49.930;8.606;2023-06-22T07:22:50;100050.88;;;29.73;100.00
21956;BME280;11142;49.930;8.606;2023-06-22T07:25:20;100046.34;;;29.56;100.00
21956;BME280;11142;49.930;8.606;2023-06-22T07:27:58;100060.94;;;29.35;100.00
21956;BME280;11142;49.930;8.606;2023-06-22T07:30:26;100070.22;;;29.32;100.00
21956;BME280;11142;49.930;8.606;2023-06-22T07:32:55;100060.88;;;30.02;100.00
21956;BME280;11142;49.930;8.606;2023-06-22T07:35:23;100056.00;;;30.29;100.00
21956;BME280;11142;49.930;8.606;2023-06-22T07:37:52;100053.31;;;29.75;100.00
21956;BME280;11142;49.930;8.606;2023-06-22T07:40:20;100057.56;;;28.52;100.00
21956;BME280;11142;49.930;8.606;2023-06-22T07:42:54;100042.72;;;29.68;100.00
21956;BME280;11142;49.930;8.606;2023-06-22T07:45:26;100043.94;;;30.57;94.05
21956;BME280;11142;49.930;8.606;2023-06-22T07:47:55;100046.56;;;30.86;90.38
21956;BME280;11142;49.930;8.606;2023-06-22T07:50:24;100047.56;;;31.85;83.24
21956;BME280;11142;49.930;8.606;2023-06-22T07:52:54;100049.97;;;32.49;77.57
21956;BME280;11142;49.930;8.606;2023-06-22T07:55:23;100064.03;;;33.30;71.31
21956;BME280;11142;49.930;8.606;2023-06-22T07:57:51;100046.53;;;32.37;75.25
21956;BME280;11142;49.930;8.606;2023-06-22T08:00:21;100054.06;;;32.97;72.97
21956;BME280;11142;49.930;8.606;2023-06-22T08:02:50;100051.38;;;33.30;66.64
21956;BME280;11142;49.930;8.606;2023-06-22T08:05:20;100057.66;;;33.19;71.83
21956;BME280;11142;49.930;8.606;2023-06-22T08:07:49;100054.38;;;33.00;70.99
21956;BME280;11142;49.930;8.606;2023-06-22T08:10:17;100044.06;;;33.09;69.73
21956;BME280;11142;49.930;8.606;2023-06-22T08:12:46;100051.91;;;32.66;73.18
21956;BME280;11142;49.930;8.606;2023-06-22T08:15:14;100040.19;;;32.88;70.06
21956;BME280;11142;49.930;8.606;2023-06-22T08:17:44;100038.97;;;32.96;71.86
21956;BME280;11142;49.930;8.606;2023-06-22T08:20:17;100037.00;;;34.18;64.61
21956;BME280;11142;49.930;8.606;2023-06-22T08:22:45;100028.41;;;34.21;65.54
21956;BME280;11142;49.930;8.606;2023-06-22T08:25:13;100016.19;;;33.92;63.77
21956;BME280;11142;49.930;8.606;2023-06-22T08:27:44;100015.59;;;33.13;67.45
21956;BME280;11142;49.930;8.606;2023-06-22T08:30:15;100030.31;;;33.44;70.69
21956;BME280;11142;49.930;8.606;2023-06-22T08:32:43;100023.56;;;34.01;64.26
21956;BME280;11142;49.930;8.606;2023-06-22T08:35:12;100016.22;;;34.40;63.07
21956;BME280;11142;49.930;8.606;2023-06-22T08:37:41;100006.50;;;34.98;60.75
21956;BME280;11142;49.930;8.606;2023-06-22T08:40:11;100009.66;;;35.22;58.79
21956;BME280;11142;49.930;8.606;2023-06-22T08:42:39;100010.28;;;34.16;61.06
21956;BME280;11142;49.930;8.606;2023-06-22T08:45:09;99994.47;;;34.03;63.42
21956;BME280;11142;49.930;8.606;2023-06-22T08:47:37;100003.47;;;34.36;61.72
21956;BME280;11142;49.930;8.606;2023-06-22T08:50:06;100002.56;;;34.79;60.66
21956;BME280;11142;49.930;8.606;2023-06-22T08:52:35;99989.06;;;35.57;56.27
21956;BME280;11142;49.930;8.606;2023-06-22T08:55:06;99996.59;;;35.50;57.06
21956;BME280;11142;49.930;8.606;2023-06-22T08:57:37;99993.78;;;35.82;53.67
21956;BME280;11142;49.930;8.606;2023-06-22T09:00:07;99994.81;;;35.71;54.43
21956;BME280;11142;49.930;8.606;2023-06-22T09:02:45;99997.56;;;35.29;56.37
21956;BME280;11142;49.930;8.606;2023-06-22T09:05:14;99985.13;;;34.33;57.72
21956;BME280;11142;49.930;8.606;2023-06-22T09:07:43;99998.69;;;34.16;60.71
21956;BME280;11142;49.930;8.606;2023-06-22T09:10:19;99999.22;;;34.66;57.29
21956;BME280;11142;49.930;8.606;2023-06-22T09:12:47;99988.97;;;34.42;57.68
21956;BME280;11142;49.930;8.606;2023-06-22T09:15:15;99991.19;;;33.75;62.89
21956;BME280;11142;49.930;8.606;2023-06-22T09:17:47;99986.63;;;34.19;60.24
21956;BME280;11142;49.930;8.606;2023-06-22T09:20:18;99973.75;;;34.04;60.96
21956;BME280;11142;49.930;8.606;2023-06-22T09:22:47;99968.03;;;33.74;60.80
21956;BME280;11142;49.930;8.606;2023-06-22T09:25:17;99970.72;;;34.22;62.27
21956;BME280;11142;49.930;8.606;2023-06-22T09:27:47;99964.97;;;34.67;59.46
21956;BME280;11142;49.930;8.606;2023-06-22T09:30:16;99959.81;;;34.97;57.47
21956;BME280;11142;49.930;8.606;2023-06-22T09:32:47;99977.16;;;34.75;56.59
21956;BME280;11142;49.930;8.606;2023-06-22T09:35:15;99971.88;;;34.04;58.95
21956;BME280;11142;49.930;8.606;2023-06-22T09:37:44;99960.63;;;33.26;63.68
21956;BME280;11142;49.930;8.606;2023-06-22T09:40:12;99948.50;;;32.90;64.77
21956;BME280;11142;49.930;8.606;2023-06-22T09:42:45;99961.19;;;33.28;65.70
21956;BME280;11142;49.930;8.606;2023-06-22T09:45:13;99963.63;;;34.11;61.94
21956;BME280;11142;49.930;8.606;2023-06-22T09:47:42;99959.75;;;34.92;57.39
21956;BME280;11142;49.930;8.606;2023-06-22T09:50:11;99959.19;;;35.22;55.57
21956;BME280;11142;49.930;8.606;2023-06-22T09:52:39;99965.25;;;35.49;53.84
21956;BME280;11142;49.930;8.606;2023-06-22T09:55:14;99956.31;;;35.44;54.26
21956;BME280;11142;49.930;8.606;2023-06-22T09:57:50;99949.44;;;35.78;52.97
21956;BME280;11142;49.930;8.606;2023-06-22T10:00:20;99953.38;;;36.22;50.45
21956;BME280;11142;49.930;8.606;2023-06-22T10:02:49;99944.88;;;35.74;50.74
21956;BME280;11142;49.930;8.606;2023-06-22T10:05:19;99934.34;;;35.87;50.85
21956;BME280;11142;49.930;8.606;2023-06-22T10:07:48;99927.91;;;35.31;53.15
21956;BME280;11142;49.930;8.606;2023-06-22T10:10:16;99918.19;;;35.30;53.70
21956;BME280;11142;49.930;8.606;2023-06-22T10:12:46;99924.84;;;35.64;53.28
21956;BME280;11142;49.930;8.606;2023-06-22T10:15:17;99918.22;;;36.12;49.96
21956;BME280;11142;49.930;8.606;2023-06-22T10:17:49;99911.28;;;35.54;52.35
21956;BME280;11142;49.930;8.606;2023-06-22T10:20:19;99907.00;;;35.68;51.41
21956;BME280;11142;49.930;8.606;2023-06-22T10:22:49;99904.59;;;35.72;48.65
21956;BME280;11142;49.930;8.606;2023-06-22T10:25:19;99893.56;;;35.94;48.88
21956;BME280;11142;49.930;8.606;2023-06-22T10:27:48;99891.97;;;35.93;49.24
21956;BME280;11142;49.930;8.606;2023-06-22T10:30:21;99890.94;;;36.49;49.01
21956;BME280;11142;49.930;8.606;2023-06-22T10:32:50;99892.56;;;36.55;45.03
21956;BME280;11142;49.930;8.606;2023-06-22T10:35:20;99875.19;;;35.91;46.79
21956;BME280;11142;49.930;8.606;2023-06-22T10:37:52;99866.81;;;35.77;50.42
21956;BME280;11142;49.930;8.606;2023-06-22T10:40:23;99864.16;;;36.17;49.59
21956;BME280;11142;49.930;8.606;2023-06-22T10:42:52;99859.56;;;36.38;46.51
21956;BME280;11142;49.930;8.606;2023-06-22T10:45:22;99847.09;;;36.47;48.29
21956;BME280;11142;49.930;8.606;2023-06-22T10:47:52;99857.56;;;37.04;46.78
21956;BME280;11142;49.930;8.606;2023-06-22T10:50:21;99851.47;;;36.18;47.04
21956;BME280;11142;49.930;8.606;2023-06-22T10:52:51;99841.72;;;36.22;48.09
21956;BME280;11142;49.930;8.606;2023-06-22T10:55:26;99842.06;;;37.25;44.99
21956;BME280;11142;49.930;8.606;2023-06-22T10:58:17;99828.97;;;37.91;42.44
21956;BME280;11142;49.930;8.606;2023-06-22T11:00:49;99831.41;;;36.44;46.31
21956;BME280;11142;49.930;8.606;2023-06-22T11:03:17;99822.25;;;36.55;47.11
21956;BME280;11142;49.930;8.606;2023-06-22T11:05:48;99815.03;;;37.20;44.89
21956;BME280;11142;49.930;8.606;2023-06-22T11:08:16;99813.72;;;37.61;45.89
21956;BME280;11142;49.930;8.606;2023-06-22T11:10:44;99823.72;;;38.39;42.03
21956;BME280;11142;49.930;8.606;2023-06-22T11:13:13;99814.72;;;38.67;41.11
21956;BME280;11142;49.930;8.606;2023-06-22T11:15:42;99799.69;;;39.03;38.98
21956;BME280;11142;49.930;8.606;2023-06-22T11:18:16;99816.97;;;38.36;40.52
21956;BME280;11142;49.930;8.606;2023-06-22T11:20:58;99803.03;;;38.14;42.21
21956;BME280;11142;49.930;8.606;2023-06-22T11:23:26;99803.44;;;38.84;40.92
21956;BME280;11142;49.930;8.606;2023-06-22T11:25:55;99803.00;;;39.19;38.44
21956;BME280;11142;49.930;8.606;2023-06-22T11:28:24;99804.22;;;39.50;38.53
21956;BME280;11142;49.930;8.606;2023-06-22T11:30:57;99795.66;;;38.48;39.88
21956;BME280;11142;49.930;8.606;2023-06-22T11:33:53;99789.63;;;39.04;39.43
21956;BME280;11142;49.930;8.606;2023-06-22T11:36:21;99784.75;;;39.43;38.13
21956;BME280;11142;49.930;8.606;2023-06-22T11:38:51;99797.47;;;38.29;41.50
21956;BME280;11142;49.930;8.606;2023-06-22T11:41:20;99783.75;;;37.48;43.15
21956;BME280;11142;49.930;8.606;2023-06-22T11:43:55;99788.69;;;39.13;39.90
21956;BME280;11142;49.930;8.606;2023-06-22T11:46:23;99800.28;;;40.58;36.89
21956;BME280;11142;49.930;8.606;2023-06-22T11:48:53;99778.69;;;39.09;39.41
21956;BME280;11142;49.930;8.606;2023-06-22T11:51:23;99788.06;;;40.69;36.94
21956;BME280;11142;49.930;8.606;2023-06-22T11:53:52;99780.81;;;39.36;39.28
21956;BME280;11142;49.930;8.606;2023-06-22T11:56:20;99777.38;;;39.62;38.46
21956;BME280;11142;49.930;8.606;2023-06-22T11:58:51;99763.00;;;40.13;37.31
21956;BME280;11142;49.930;8.606;2023-06-22T12:01:23;99770.03;;;39.07;40.33
21956;BME280;11142;49.930;8.606;2023-06-22T12:03:53;99746.19;;;38.04;42.11
21956;BME280;11142;49.930;8.606;2023-06-22T12:06:22;99743.19;;;37.33;44.22
21956;BME280;11142;49.930;8.606;2023-06-22T12:08:52;99732.03;;;39.44;39.77
21956;BME280;11142;49.930;8.606;2023-06-22T12:11:25;99756.47;;;41.09;36.52
21956;BME280;11142;49.930;8.606;2023-06-22T12:13:53;99756.03;;;42.49;33.62
21956;BME280;11142;49.930;8.606;2023-06-22T12:16:22;99763.25;;;43.10;32.33
21956;BME280;11142;49.930;8.606;2023-06-22T12:18:51;99760.53;;;43.02;31.80
21956;BME280;11142;49.930;8.606;2023-06-22T12:21:23;99767.78;;;43.15;31.46
21956;BME280;11142;49.930;8.606;2023-06-22T12:23:53;99755.88;;;40.44;35.10
21956;BME280;11142;49.930;8.606;2023-06-22T12:26:25;99745.66;;;39.76;37.55
21956;BME280;11142;49.930;8.606;2023-06-22T12:28:54;99732.06;;;39.76;37.66
21956;BME280;11142;49.930;8.606;2023-06-22T12:31:23;99735.31;;;39.22;39.13
21956;BME280;11142;49.930;8.606;2023-06-22T12:33:51;99722.50;;;39.28;39.44
21956;BME280;11142;49.930;8.606;2023-06-22T12:36:19;99731.56;;;40.34;36.81
21956;BME280;11142;49.930;8.606;2023-06-22T12:38:50;99730.81;;;41.10;34.80
21956;BME280;11142;49.930;8.606;2023-06-22T12:41:22;99720.69;;;41.38;34.20
21956;BME280;11142;49.930;8.606;2023-06-22T12:43:50;99726.19;;;42.22;32.90
21956;BME280;11142;49.930;8.606;2023-06-22T12:46:19;99728.81;;;42.83;31.90
21956;BME280;11142;49.930;8.606;2023-06-22T12:48:48;99732.78;;;42.60;32.03
21956;BME280;11142;49.930;8.606;2023-06-22T12:51:20;99736.06;;;41.78;33.70
21956;BME280;11142;49.930;8.606;2023-06-22T12:53:53;99738.25;;;41.32;34.08
21956;BME280;11142;49.930;8.606;2023-06-22T12:56:22;99725.34;;;43.09;31.42
21956;BME280;11142;49.930;8.606;2023-06-22T12:58:54;99737.81;;;44.80;28.96
21956;BME280;11142;49.930;8.606;2023-06-22T13:01:27;99726.63;;;43.63;30.86
21956;BME280;11142;49.930;8.606;2023-06-22T13:03:57;99726.63;;;43.20;30.23